Time;durP1;ratioP1;P1;durP2;ratioP2;P2;SDS_P1;SDS_P2;PMS_P1;PMS_P2;Temp;Humidity;BMP_temperature;BMP_pressure;BME280_temperature;BME280_humidity;BME280_pressure;Samples;Min_cycle;Max_cycle;Signal;HPM_P1;HPM_P2
2022/08/07 00:01:16;;;;;;;21.30;19.08;;;19.20;80.90;;;18.04;100.00;96594.25;4945037;28;20032;-67
2022/08/07 00:03:41;;;;;;;19.88;17.90;;;19.20;80.80;;;18.03;100.00;96588.13;4941319;28;20400;-68
2022/08/07 00:06:07;;;;;;;19.08;17.15;;;19.10;80.40;;;18.01;100.00;96589.38;4944122;28;20067;-67
2022/08/07 00:08:35;;;;;;;18.77;16.70;;;19.10;80.50;;;17.99;100.00;96591.47;4942908;28;20039;-68
2022/08/07 00:11:02;;;;;;;19.35;17.25;;;19.10;80.50;;;17.96;100.00;96591.91;4945593;28;20082;-68
2022/08/07 00:13:28;;;;;;;19.42;17.38;;;19.10;80.90;;;17.92;100.00;96591.56;4946246;28;20143;-68
2022/08/07 00:15:54;;;;;;;19.58;16.95;;;19.10;81.00;;;17.91;100.00;96591.78;4948747;28;20412;-69
2022/08/07 00:18:22;;;;;;;19.13;17.23;;;19.10;81.20;;;17.89;100.00;96592.00;4961970;28;20149;-68
2022/08/07 00:20:50;;;;;;;20.13;16.55;;;19.10;81.10;;;17.90;100.00;96595.47;4948494;28;20062;-67
2022/08/07 00:23:16;;;;;;;19.00;15.93;;;19.10;80.90;;;17.89;100.00;96601.84;4960867;28;20062;-67
2022/08/07 00:25:42;;;;;;;17.30;15.43;;;19.10;80.80;;;17.88;100.00;96592.19;4927561;28;20209;-67
2022/08/07 00:28:08;;;;;;;16.77;14.45;;;19.10;80.50;;;17.87;100.00;96594.03;4943649;28;20121;-68
2022/08/07 00:30:34;;;;;;;16.00;14.27;;;19.10;80.50;;;17.87;100.00;96595.91;4929587;28;20178;-67
2022/08/07 00:33:00;;;;;;;15.55;13.02;;;19.10;80.50;;;17.90;100.00;96598.13;4931736;28;20447;-67
2022/08/07 00:35:27;;;;;;;14.73;12.57;;;19.10;80.20;;;17.87;100.00;96586.06;4946626;28;20142;-67
2022/08/07 00:37:52;;;;;;;15.57;13.13;;;19.10;80.20;;;17.89;100.00;96585.88;4928771;28;20050;-69
2022/08/07 00:40:18;;;;;;;14.70;12.73;;;19.10;80.20;;;17.87;100.00;96590.56;4945460;28;20047;-67
2022/08/07 00:42:44;;;;;;;13.57;12.07;;;19.00;80.30;;;17.86;100.00;96586.28;4929143;28;20055;-68
2022/08/07 00:45:10;;;;;;;19.55;11.95;;;19.10;80.40;;;17.87;100.00;96590.56;4964639;28;20035;-67
2022/08/07 00:47:36;;;;;;;15.98;12.38;;;19.10;80.50;;;17.87;100.00;96587.91;4911541;28;20134;-67
2022/08/07 00:50:01;;;;;;;15.73;12.43;;;19.10;80.50;;;17.84;100.00;96580.38;4963156;28;20558;-68
2022/08/07 00:52:27;;;;;;;13.43;11.93;;;19.00;80.60;;;17.80;100.00;96581.88;4949122;28;20573;-68
2022/08/07 00:54:53;;;;;;;13.43;10.85;;;19.00;80.60;;;17.77;100.00;96582.31;4932220;28;20541;-69
2022/08/07 00:57:19;;;;;;;11.48;10.32;;;18.90;80.70;;;17.78;100.00;96589.25;4932448;28;20530;-67
2022/08/07 00:59:44;;;;;;;12.35;10.98;;;19.00;80.80;;;17.77;100.00;96588.44;4944977;28;20063;-67
2022/08/07 01:02:10;;;;;;;13.20;10.27;;;18.90;80.90;;;17.78;100.00;96589.25;4948991;28;20035;-66
2022/08/07 01:04:37;;;;;;;13.88;9.65;;;18.90;80.80;;;17.75;100.00;96586.00;4930768;28;20054;-68
2022/08/07 01:07:03;;;;;;;10.65;8.93;;;18.90;80.50;;;17.72;100.00;96586.47;4964657;28;20027;-68
2022/08/07 01:09:29;;;;;;;10.55;8.75;;;18.90;80.30;;;17.72;100.00;96575.00;4943560;28;20061;-68
2022/08/07 01:11:54;;;;;;;12.75;9.25;;;18.90;80.50;;;17.73;100.00;96585.41;4947790;28;20506;-69
2022/08/07 01:14:21;;;;;;;11.18;9.30;;;18.90;80.60;;;17.76;100.00;96581.50;4947387;28;20074;-68
2022/08/07 01:16:47;;;;;;;12.43;9.57;;;19.00;80.50;;;17.77;100.00;96585.78;4932051;28;20031;-68
2022/08/07 01:19:13;;;;;;;13.48;11.10;;;18.90;80.60;;;17.75;100.00;96580.69;4963076;28;20407;-67
2022/08/07 01:21:39;;;;;;;11.35;10.13;;;19.00;80.50;;;17.77;100.00;96577.00;4930092;28;20053;-68
2022/08/07 01:24:04;;;;;;;11.15;10.05;;;18.90;80.50;;;17.76;100.00;96576.19;4928475;28;20063;-67
2022/08/07 01:26:30;;;;;;;10.65;9.43;;;19.00;80.60;;;17.77;100.00;96579.66;4946094;28;20054;-67
2022/08/07 01:28:56;;;;;;;11.60;8.93;;;19.00;80.40;;;17.76;100.00;96573.53;4962568;28;20504;-67
2022/08/07 01:31:27;;;;;;;9.82;8.73;;;19.00;80.20;;;17.74;100.00;96584.38;4947678;28;20076;-67
2022/08/07 01:33:52;;;;;;;10.55;8.85;;;18.90;80.20;;;17.75;100.00;96575.38;4945119;28;20039;-67
2022/08/07 01:36:18;;;;;;;12.90;9.13;;;18.90;80.20;;;17.72;100.00;96570.50;4947252;28;20122;-68
2022/08/07 01:38:44;;;;;;;10.38;8.73;;;18.90;80.00;;;17.71;100.00;96576.03;4913425;28;20136;-68
2022/08/07 01:41:10;;;;;;;10.18;8.88;;;18.90;80.10;;;17.69;100.00;96567.47;4947764;28;20126;-69
2022/08/07 01:43:35;;;;;;;9.70;8.35;;;18.80;80.00;;;17.63;100.00;96566.44;4913212;28;20402;-67
2022/08/07 01:46:01;;;;;;;8.70;7.80;;;18.80;80.20;;;17.64;100.00;96569.94;4963520;28;20421;-68
2022/08/07 01:48:27;;;;;;;10.32;8.05;;;18.80;80.10;;;17.64;100.00;96557.44;4947961;28;20036;-67
2022/08/07 01:50:57;;;;;;;8.75;7.32;;;18.90;80.10;;;17.61;100.00;96560.53;4929405;28;20126;-67
2022/08/07 01:53:23;;;;;;;8.57;7.63;;;18.80;80.00;;;17.61;100.00;96568.53;4959113;28;20035;-68
2022/08/07 01:55:50;;;;;;;8.20;7.10;;;18.80;80.10;;;17.59;100.00;96565.28;4946324;28;20390;-67
2022/08/07 01:58:20;;;;;;;7.85;6.95;;;18.80;80.20;;;17.56;100.00;96555.09;4947206;28;20551;-68
2022/08/07 02:00:48;;;;;;;8.45;6.57;;;18.70;80.10;;;17.54;100.00;96566.97;4929902;28;20059;-67
2022/08/07 02:03:14;;;;;;;7.70;6.35;;;18.70;80.00;;;17.51;100.00;96562.09;4930921;28;20126;-68
2022/08/07 02:06:02;;;;;;;10.57;7.10;;;18.70;80.00;;;17.50;100.00;96558.63;4944666;28;20224;-68
2022/08/07 02:08:28;;;;;;;7.57;6.50;;;18.70;79.80;;;17.45;100.00;96555.84;4931585;28;20054;-67
2022/08/07 02:10:57;;;;;;;6.28;5.68;;;18.60;79.70;;;17.40;100.00;96555.66;4912502;28;20086;-67
2022/08/07 02:13:25;;;;;;;8.90;6.65;;;18.50;79.70;;;17.35;100.00;96552.84;4947522;28;20036;-68
2022/08/07 02:15:50;;;;;;;6.65;6.00;;;18.50;79.80;;;17.31;100.00;96557.00;4914312;28;20050;-67
2022/08/07 02:18:16;;;;;;;7.90;5.75;;;18.50;79.70;;;17.29;100.00;96553.75;4961364;28;20403;-68
2022/08/07 02:20:42;;;;;;;7.47;5.57;;;18.40;79.70;;;17.23;100.00;96544.81;4945381;28;20171;-67
2022/08/07 02:23:08;;;;;;;7.65;5.47;;;18.40;79.50;;;17.20;100.00;96549.72;4945831;28;20074;-68
2022/08/07 02:25:35;;;;;;;6.63;5.50;;;18.40;79.40;;;17.15;100.00;96551.19;4944843;28;20190;-67
2022/08/07 02:28:01;;;;;;;6.47;5.65;;;18.30;79.50;;;17.09;100.00;96546.75;4943139;28;20511;-67
2022/08/07 02:30:27;;;;;;;8.48;5.90;;;18.20;79.60;;;17.04;100.00;96541.28;4930163;28;20090;-69
2022/08/07 02:32:53;;;;;;;7.82;6.00;;;18.10;79.70;;;16.98;100.00;96538.72;4961475;28;20039;-67
2022/08/07 02:35:19;;;;;;;7.45;5.88;;;18.10;79.70;;;16.94;100.00;96535.66;4945334;28;20642;-68
2022/08/07 02:37:45;;;;;;;6.13;5.20;;;18.10;79.70;;;16.89;100.00;96522.22;4943484;28;20418;-66
2022/08/07 02:40:11;;;;;;;8.45;5.20;;;18.00;79.60;;;16.87;100.00;96524.28;4945174;28;20065;-67
2022/08/07 02:42:37;;;;;;;7.28;5.20;;;18.00;79.70;;;16.83;100.00;96533.72;4916682;28;20036;-67
2022/08/07 02:45:04;;;;;;;6.95;5.15;;;17.90;79.60;;;16.78;100.00;96531.72;4932699;28;20585;-67
2022/08/07 02:47:30;;;;;;;6.80;5.40;;;17.80;79.70;;;16.75;100.00;96537.47;4961269;28;20031;-67
2022/08/07 02:49:56;;;;;;;6.65;5.00;;;17.80;79.90;;;16.73;100.00;96533.38;4945927;28;20044;-67
2022/08/07 02:52:33;;;;;;;6.55;4.97;;;17.80;79.90;;;16.71;100.00;96535.44;4948973;28;20046;-67
2022/08/07 02:55:26;;;;;;;5.38;4.75;;;17.80;79.90;;;16.68;100.00;96541.19;4947765;28;20043;-67
2022/08/07 02:57:53;;;;;;;5.68;5.13;;;17.70;80.00;;;16.62;100.00;96536.72;4932845;28;20043;-68
2022/08/07 03:00:19;;;;;;;8.30;4.90;;;17.70;80.00;;;16.60;100.00;96546.75;4928567;28;20043;-68
2022/08/07 03:02:47;;;;;;;5.63;5.10;;;17.70;80.00;;;16.59;100.00;96550.44;4913871;28;20118;-67
2022/08/07 03:05:13;;;;;;;6.40;4.95;;;17.70;80.00;;;16.56;100.00;96542.91;4912890;28;20046;-68
2022/08/07 03:07:39;;;;;;;7.50;5.28;;;17.70;80.10;;;16.50;100.00;96540.03;4913844;28;20499;-68
2022/08/07 03:10:05;;;;;;;5.75;4.97;;;17.60;80.10;;;16.47;100.00;96539.66;4912937;28;20086;-68
2022/08/07 03:12:31;;;;;;;5.57;4.70;;;17.60;80.20;;;16.43;100.00;96541.13;4926143;28;20035;-69
2022/08/07 03:14:57;;;;;;;5.30;4.80;;;17.50;80.30;;;16.41;100.00;96541.34;4947287;28;20066;-67
2022/08/07 03:17:22;;;;;;;7.93;5.18;;;17.50;80.50;;;16.39;100.00;96537.28;4945770;28;20130;-67
2022/08/07 03:19:49;;;;;;;7.13;5.43;;;17.50;80.40;;;16.37;100.00;96537.50;4941031;28;20573;-67
2022/08/07 03:22:15;;;;;;;5.82;5.22;;;17.50;80.50;;;16.34;100.00;96537.94;4944767;28;20049;-67
2022/08/07 03:24:41;;;;;;;6.05;5.45;;;17.40;80.50;;;16.31;100.00;96529.59;4945295;28;20038;-67
2022/08/07 03:27:07;;;;;;;7.15;5.20;;;17.40;80.60;;;16.27;100.00;96539.78;4944363;28;20028;-66
2022/08/07 03:29:37;;;;;;;6.45;4.97;;;17.40;80.60;;;16.24;100.00;96542.88;4961031;28;20117;-68
2022/08/07 03:32:05;;;;;;;7.15;5.47;;;17.40;80.80;;;16.22;100.00;96555.56;4943427;28;20039;-68
2022/08/07 03:34:31;;;;;;;5.72;4.93;;;17.30;80.70;;;16.22;100.00;96550.25;4957009;28;20066;-67
2022/08/07 03:36:57;;;;;;;7.10;4.80;;;17.40;80.70;;;16.22;100.00;96547.59;4944868;28;20050;-67
2022/08/07 03:39:23;;;;;;;7.88;5.60;;;17.40;80.50;;;16.20;100.00;96552.31;4940356;28;20170;-68
2022/08/07 03:41:49;;;;;;;6.72;4.97;;;17.40;80.30;;;16.18;100.00;96551.69;4945672;28;20082;-67
2022/08/07 03:44:15;;;;;;;5.50;4.85;;;17.40;80.20;;;16.18;100.00;96546.41;4926054;28;20050;-67
2022/08/07 03:46:41;;;;;;;6.95;4.75;;;17.30;80.20;;;16.17;100.00;96544.75;4909909;28;20114;-67
2022/08/07 03:49:08;;;;;;;6.00;4.40;;;17.30;80.20;;;16.15;100.00;96537.03;4945268;28;20035;-67
2022/08/07 03:51:34;;;;;;;5.18;4.40;;;17.30;80.00;;;16.14;100.00;96537.22;4961070;28;20472;-68
2022/08/07 03:54:00;;;;;;;5.35;4.60;;;17.30;79.60;;;16.12;100.00;96534.78;4943819;28;21108;-67
2022/08/07 03:56:26;;;;;;;5.25;4.00;;;17.40;79.50;;;16.12;100.00;96531.31;4944691;28;20098;-68
2022/08/07 03:58:52;;;;;;;4.20;3.80;;;17.30;79.40;;;16.11;100.00;96530.50;4958553;28;20054;-67
2022/08/07 04:01:18;;;;;;;6.35;5.05;;;17.30;79.00;;;16.07;100.00;96531.97;4913460;28;20148;-67
2022/08/07 04:03:44;;;;;;;7.50;4.75;;;17.20;78.90;;;16.05;100.00;96533.19;4945088;28;20032;-68
2022/08/07 04:06:10;;;;;;;4.57;3.58;;;17.20;78.60;;;16.01;100.00;96526.69;4943911;28;20031;-68
2022/08/07 04:08:38;;;;;;;3.95;3.28;;;17.20;78.30;;;16.00;100.00;96531.16;4945096;28;20082;-68
2022/08/07 04:11:04;;;;;;;4.93;3.50;;;17.20;78.20;;;16.00;100.00;96538.31;4943226;28;20135;-67
2022/08/07 04:13:29;;;;;;;3.88;3.47;;;17.10;78.10;;;16.00;100.00;96538.31;4944480;28;20043;-68
2022/08/07 04:15:55;;;;;;;5.03;3.22;;;17.10;78.00;;;16.00;100.00;96525.06;4944836;28;20090;-68
2022/08/07 04:18:21;;;;;;;4.28;2.88;;;17.20;78.10;;;16.00;100.00;96522.41;4944329;28;20039;-68
2022/08/07 04:20:47;;;;;;;4.30;2.55;;;17.20;77.70;;;15.99;100.00;96531.38;4912111;28;20130;-69
2022/08/07 04:23:13;;;;;;;3.50;2.80;;;17.20;77.20;;;15.98;100.00;96540.38;4914305;28;20099;-67
2022/08/07 04:25:39;;;;;;;5.30;3.08;;;17.20;77.00;;;15.98;100.00;96541.19;4914029;28;20518;-69
2022/08/07 04:28:06;;;;;;;3.78;3.15;;;17.20;77.30;;;16.00;100.00;96543.63;4915600;28;20396;-68
2022/08/07 04:30:33;;;;;;;4.53;2.95;;;17.20;77.00;;;16.00;100.00;96543.63;4950174;29;20402;-69
2022/08/07 04:32:59;;;;;;;4.60;2.80;;;17.20;76.80;;;15.98;100.00;96540.38;4943372;28;20079;-69
2022/08/07 04:35:25;;;;;;;4.00;2.75;;;17.20;76.50;;;15.98;100.00;96541.19;4948418;28;20077;-67
2022/08/07 04:37:51;;;;;;;4.43;2.80;;;17.20;76.30;;;15.97;100.00;96542.22;4911267;28;20582;-68
2022/08/07 04:40:16;;;;;;;5.93;2.75;;;17.20;76.40;;;15.98;100.00;96543.03;4959582;28;20542;-69
2022/08/07 04:42:42;;;;;;;4.82;2.75;;;17.30;76.40;;;16.01;100.00;96539.94;4913422;29;20511;-68
2022/08/07 04:45:10;;;;;;;6.18;3.05;;;17.30;76.40;;;16.01;100.00;96540.75;4961593;28;20087;-68
2022/08/07 04:48:28;;;;;;;4.97;2.80;;;17.30;76.30;;;16.05;100.00;96543.78;4963390;28;20031;-68
2022/08/07 04:51:27;;;;;;;2.97;2.67;;;17.30;76.30;;;16.05;100.00;96535.84;4929401;28;20039;-69
2022/08/07 04:54:00;;;;;;;6.82;4.90;;;17.40;76.70;;;16.06;100.00;96534.81;4933952;28;20660;-68
2022/08/07 04:56:48;;;;;;;5.05;3.70;;;17.40;76.80;;;16.09;100.00;96539.72;4963218;28;20043;-68
2022/08/07 04:59:44;;;;;;;7.57;4.38;;;17.40;76.70;;;16.11;100.00;96541.13;4951373;28;20090;-69
2022/08/07 05:02:26;;;;;;;6.18;3.70;;;17.50;76.70;;;16.12;100.00;96537.44;4931768;28;20066;-69
2022/08/07 05:05:16;;;;;;;4.88;3.10;;;17.50;76.00;;;16.16;100.00;96537.84;4967020;28;20398;-70
2022/08/07 05:07:54;;;;;;;5.47;3.50;;;17.60;76.10;;;16.19;100.00;96537.41;4968523;28;20033;-69
2022/08/07 05:10:40;;;;;;;5.93;2.78;;;17.60;75.50;;;16.22;99.42;96540.44;4951465;28;20031;-69
2022/08/07 05:13:19;;;;;;;3.13;2.50;;;17.70;75.30;;;16.25;97.69;96541.84;4927817;28;20035;-69
2022/08/07 05:15:49;;;;;;;4.22;2.13;;;17.60;73.90;;;16.27;96.73;96539.78;4951609;28;20509;-67
2022/08/07 05:18:28;;;;;;;4.78;2.10;;;17.70;73.10;;;16.31;95.84;96538.38;4953581;28;20039;-70
2022/08/07 05:20:58;;;;;;;3.70;2.10;;;17.80;72.70;;;16.34;95.50;96540.59;4935354;28;20050;-70
2022/08/07 05:23:37;;;;;;;2.78;1.98;;;17.80;72.50;;;16.40;94.45;96539.72;4931016;28;20406;-69
2022/08/07 05:26:03;;;;;;;2.55;1.70;;;17.90;72.10;;;16.44;94.36;96540.09;4935666;28;20031;-69
2022/08/07 05:28:32;;;;;;;3.53;1.80;;;17.90;70.90;;;16.48;93.07;96541.28;4957794;28;20040;-69
2022/08/07 05:30:57;;;;;;;3.38;1.35;;;18.00;70.70;;;16.52;92.66;96542.47;4935089;28;20082;-68
2022/08/07 05:33:23;;;;;;;3.47;1.55;;;18.00;70.30;;;16.57;91.30;96550.66;4951312;28;20101;-69
2022/08/07 05:35:50;;;;;;;2.22;1.58;;;18.10;69.70;;;16.62;90.48;96542.84;4919119;28;20094;-72
2022/08/07 05:38:15;;;;;;;3.33;1.40;;;18.10;69.20;;;16.68;89.51;96554.47;4949508;28;20031;-70
2022/08/07 05:40:41;;;;;;;2.50;1.15;;;18.20;68.60;;;16.72;89.86;96543.19;4936230;28;20515;-68
2022/08/07 05:43:07;;;;;;;7.05;1.42;;;18.30;68.90;;;16.78;89.31;96546.84;4962545;28;20940;-68
2022/08/07 05:45:33;;;;;;;1.77;1.30;;;18.40;68.10;;;16.80;87.68;96545.59;4932720;28;20082;-70
2022/08/07 05:47:59;;;;;;;2.03;1.20;;;18.40;67.70;;;16.86;86.81;96545.75;4944209;28;20059;-69
2022/08/07 05:50:25;;;;;;;1.92;1.00;;;18.40;66.80;;;16.92;86.77;96547.53;4951754;28;20534;-69
2022/08/07 05:52:51;;;;;;;2.28;1.30;;;18.50;66.90;;;16.97;86.56;96545.84;4915594;28;20043;-67
2022/08/07 05:55:17;;;;;;;2.30;1.20;;;18.60;67.00;;;17.02;86.17;96548.69;4956168;28;20031;-68
2022/08/07 05:57:42;;;;;;;4.05;3.10;;;18.60;66.30;;;17.09;84.88;96546.75;4937277;28;20036;-67
2022/08/07 06:00:09;;;;;;;3.90;1.77;;;18.70;65.40;;;17.14;83.55;96546.91;4931942;28;20043;-67
2022/08/07 06:02:35;;;;;;;3.92;1.40;;;18.60;64.50;;;17.20;82.91;96555.03;4952603;28;20122;-68
2022/08/07 06:05:07;;;;;;;2.05;1.50;;;18.80;63.90;;;17.25;82.55;96550.72;4919554;28;20486;-68
2022/08/07 06:07:33;;;;;;;3.35;1.40;;;18.90;64.20;;;17.31;82.12;96549.00;4921836;28;20039;-66
2022/08/07 06:09:59;;;;;;;5.15;1.50;;;19.00;63.80;;;17.39;82.76;96552.19;4929728;28;20114;-67
2022/08/07 06:12:25;;;;;;;2.17;1.20;;;19.10;64.10;;;17.45;82.16;96551.31;4934540;28;20035;-67
2022/08/07 06:14:50;;;;;;;2.47;1.17;;;19.10;63.80;;;17.52;81.34;96551.25;4949823;28;20042;-66
2022/08/07 06:17:18;;;;;;;2.30;1.40;;;19.20;62.90;;;17.59;80.56;96551.97;4934026;28;20031;-67
2022/08/07 06:19:43;;;;;;;1.45;1.05;;;19.30;61.90;;;17.70;80.16;96553.94;4946438;28;20044;-66
2022/08/07 06:22:09;;;;;;;1.75;1.17;;;19.50;62.40;;;17.79;79.73;96542.97;4932680;28;20055;-67
2022/08/07 06:24:35;;;;;;;1.60;1.20;;;19.60;62.10;;;17.91;80.21;96554.53;4949460;28;20035;-67
2022/08/07 06:27:02;;;;;;;2.50;1.10;;;19.60;61.80;;;18.00;79.26;96550.50;4950108;28;20136;-67
2022/08/07 06:29:28;;;;;;;2.72;1.58;;;19.60;61.50;;;18.06;79.26;96549.59;4950851;28;20047;-66
2022/08/07 06:31:54;;;;;;;2.25;1.20;;;19.70;61.40;;;18.15;79.06;96548.25;4968602;28;20035;-67
2022/08/07 06:34:24;;;;;;;4.93;1.88;;;19.80;61.30;;;18.22;77.66;96548.97;4960480;28;20039;-67
2022/08/07 06:36:50;;;;;;;3.08;1.75;;;19.90;61.40;;;18.27;78.78;96546.44;4949529;28;20476;-67
2022/08/07 06:39:15;;;;;;;3.45;1.50;;;20.00;61.30;;;18.34;77.25;96551.69;4968720;28;20063;-68
2022/08/07 06:41:44;;;;;;;2.83;1.27;;;20.10;61.20;;;18.41;77.96;96562.25;4920195;28;20126;-68
2022/08/07 06:44:10;;;;;;;2.83;1.30;;;20.10;60.70;;;18.48;77.51;96562.97;4964782;28;20065;-67
2022/08/07 06:46:36;;;;;;;2.60;1.85;;;20.30;60.50;;;18.55;77.32;96548.50;4917648;28;20035;-68
2022/08/07 06:49:03;;;;;;;4.78;4.20;;;20.40;60.10;;;18.63;76.99;96550.06;4947779;28;20038;-69
2022/08/07 06:51:30;;;;;;;3.20;1.58;;;20.50;60.20;;;18.72;77.77;96559.34;4949848;28;20036;-69
2022/08/07 06:54:01;;;;;;;2.22;1.25;;;20.70;59.60;;;18.84;76.57;96546.84;4950395;28;20414;-70
2022/08/07 06:56:42;;;;;;;4.32;2.15;;;20.80;59.00;;;18.97;76.56;96546.63;4923164;29;20035;-68
2022/08/07 06:59:11;;;;;;;3.47;1.83;;;21.00;59.40;;;19.15;75.88;96550.22;4950115;28;20433;-67
2022/08/07 07:01:37;;;;;;;3.95;3.17;;;21.20;58.70;;;19.26;76.42;96549.44;4933719;28;20059;-67
2022/08/07 07:04:04;;;;;;;2.25;1.45;;;21.40;58.20;;;19.40;74.66;96552.66;4916073;28;20586;-68
2022/08/07 07:06:33;;;;;;;2.88;1.45;;;21.40;58.00;;;19.50;75.44;96553.72;4948394;28;20035;-68
2022/08/07 07:09:18;;;;;;;4.53;2.78;;;21.50;58.20;;;19.62;73.04;96547.56;4949286;28;20030;-69
2022/08/07 07:12:05;;;;;;;3.35;2.10;;;21.60;57.40;;;19.68;73.07;96547.41;4961322;28;20031;-69
2022/08/07 07:15:09;;;;;;;3.70;2.60;;;21.60;58.00;;;19.69;71.18;96549.06;4950109;28;20082;-69
2022/08/07 07:18:27;;;;;;;4.93;3.80;;;21.50;56.50;;;19.75;69.67;96547.31;4949616;28;20039;-67
2022/08/07 07:20:56;;;;;;;6.10;1.90;;;21.70;56.40;;;19.81;73.38;96546.38;4928314;28;20569;-66
2022/08/07 07:23:22;;;;;;;4.15;1.73;;;21.80;56.50;;;19.90;73.65;96555.63;4965465;28;20039;-68
2022/08/07 07:25:51;;;;;;;2.00;1.50;;;22.00;55.90;;;20.08;74.20;96555.44;4917901;28;20046;-67
2022/08/07 07:28:23;;;;;;;4.45;1.50;;;22.30;57.20;;;20.29;73.25;96553.16;4947884;28;20480;-67
2022/08/07 07:31:02;;;;;;;3.38;1.67;;;22.60;57.00;;;20.49;72.37;96548.22;4950422;28;20050;-67
2022/08/07 07:33:29;;;;;;;3.80;1.98;;;22.80;55.80;;;20.66;72.96;96548.25;4957182;28;20082;-68
2022/08/07 07:35:55;;;;;;;3.53;1.77;;;23.10;54.80;;;20.85;73.05;96546.16;4945647;28;20558;-66
2022/08/07 07:38:23;;;;;;;3.65;1.70;;;23.40;55.30;;;21.05;72.28;96530.44;4931691;28;20094;-67
2022/08/07 07:40:49;;;;;;;3.08;1.67;;;23.70;53.50;;;21.25;71.09;96525.41;4948546;28;20058;-66
2022/08/07 07:43:15;;;;;;;3.20;1.60;;;23.90;52.30;;;21.48;71.03;96524.38;4948206;28;20050;-67
2022/08/07 07:45:41;;;;;;;5.65;4.10;;;24.20;52.60;;;21.74;70.86;96527.41;4927825;28;20039;-66
2022/08/07 07:48:08;;;;;;;9.30;5.07;;;24.50;52.30;;;21.97;69.33;96532.50;4946802;28;20121;-66
2022/08/07 07:50:34;;;;;;;2.10;1.42;;;24.80;50.90;;;22.19;69.82;96529.84;4946848;28;20039;-66
2022/08/07 07:53:00;;;;;;;3.22;1.58;;;25.00;51.50;;;22.34;68.27;96524.63;4965088;28;20059;-66
2022/08/07 07:55:26;;;;;;;5.10;1.58;;;25.10;49.50;;;22.48;66.85;96528.53;4964037;28;20039;-66
2022/08/07 07:57:52;;;;;;;4.57;1.70;;;25.20;48.50;;;22.61;65.93;96525.41;4947446;28;20070;-66
2022/08/07 08:00:17;;;;;;;2.35;1.65;;;25.10;48.30;;;22.58;65.03;96528.59;4948150;28;20054;-66
2022/08/07 08:02:45;;;;;;;2.55;1.70;;;24.90;48.30;;;22.57;64.31;96524.31;4945252;28;20566;-66
2022/08/07 08:05:11;;;;;;;1.73;1.27;;;24.80;48.20;;;22.58;63.71;96520.56;4947856;28;20036;-66
2022/08/07 08:07:37;;;;;;;3.70;1.50;;;24.70;48.00;;;22.56;62.91;96516.53;4916413;29;20106;-67
2022/08/07 08:10:04;;;;;;;2.80;1.40;;;24.50;47.90;;;22.55;62.03;96517.59;4947329;28;20031;-66
2022/08/07 08:12:31;;;;;;;2.63;1.33;;;24.50;47.30;;;22.46;61.64;96511.88;4946341;28;20528;-66
2022/08/07 08:14:57;;;;;;;2.70;1.30;;;24.30;48.30;;;22.45;62.07;96521.00;4944333;28;20044;-66
2022/08/07 08:17:23;;;;;;;4.93;1.40;;;24.40;49.20;;;22.45;62.99;96510.28;4945652;28;20126;-66
2022/08/07 08:19:51;;;;;;;3.67;1.30;;;24.40;49.60;;;22.52;61.64;96507.38;4947037;28;20043;-67
2022/08/07 08:27:51;;;;;;;3.50;1.30;;;25.40;47.40;;;23.00;59.28;96509.13;4922991;28;20521;-66
2022/08/07 08:30:17;;;;;;;2.10;1.42;;;25.90;44.60;;;23.20;59.65;96517.31;4935161;28;20039;-66
2022/08/07 08:32:47;;;;;;;2.88;1.40;;;26.10;43.60;;;23.40;57.35;96513.16;4918904;29;20023;-66
2022/08/07 08:35:17;;;;;;;2.10;1.20;;;26.50;42.90;;;23.64;56.83;96518.94;4919206;29;20507;-67
2022/08/07 08:37:44;;;;;;;1.85;1.00;;;26.90;42.00;;;23.82;57.78;96511.25;4915284;29;20526;-66
2022/08/07 08:40:15;;;;;;;4.78;1.02;;;27.00;42.10;;;24.00;56.44;96511.84;4968288;28;20098;-66
2022/08/07 08:42:46;;;;;;;3.15;1.30;;;27.20;41.90;;;24.14;54.51;96505.69;4971824;28;20040;-66
2022/08/07 08:45:42;;;;;;;2.83;1.90;;;27.40;40.60;;;24.40;52.76;96505.78;4920752;28;20031;-74
2022/08/07 08:48:26;;;;;;;5.53;1.20;;;27.60;40.90;;;24.58;55.80;96507.16;4934098;28;20078;-71
2022/08/07 08:51:31;;;;;;;2.42;0.90;;;27.90;40.30;;;24.80;50.38;96505.00;4928964;29;20392;-71
2022/08/07 08:54:22;;;;;;;3.05;1.00;;;28.10;38.40;;;25.12;50.81;96496.69;4878040;29;20044;-70
2022/08/07 08:56:48;;;;;;;3.92;1.15;;;28.60;38.20;;;25.41;53.31;96504.97;4934660;28;20539;-70
2022/08/07 08:59:25;;;;;;;2.30;0.90;;;28.90;37.90;;;25.61;49.94;96504.91;4950087;28;20094;-73
2022/08/07 09:02:26;;;;;;;2.35;0.90;;;29.10;37.00;;;25.97;49.84;96502.09;4966015;28;20111;-64
2022/08/07 09:05:42;;;;;;;3.33;1.02;;;29.50;38.70;;;26.24;48.37;96497.09;4948355;28;20027;-69
2022/08/07 09:08:17;;;;;;;1.67;0.90;;;29.60;36.70;;;26.37;47.54;96500.28;4926663;28;20505;-69
2022/08/07 09:10:56;;;;;;;2.20;1.00;;;29.60;36.30;;;26.55;47.98;96502.31;4965511;28;20403;-69
2022/08/07 09:13:39;;;;;;;4.75;1.38;;;29.70;36.90;;;26.70;47.89;96510.28;4965056;28;20122;-63
2022/08/07 09:16:25;;;;;;;2.63;1.00;;;30.00;36.30;;;26.89;46.31;96501.50;4949436;28;20122;-64
2022/08/07 09:18:53;;;;;;;2.33;1.40;;;30.10;35.70;;;27.05;48.40;96494.94;4963450;28;20027;-63
2022/08/07 09:21:53;;;;;;;3.90;1.33;;;30.30;36.70;;;27.28;46.12;96504.16;4965537;28;20138;-63
2022/08/07 09:25:12;;;;;;;4.97;2.23;;;30.30;36.90;;;27.32;45.13;96489.78;4961270;28;20073;-64
2022/08/07 09:27:59;;;;;;;1.88;1.00;;;30.40;35.50;;;27.54;46.04;96485.78;4927603;29;20035;-63
2022/08/07 09:30:26;;;;;;;1.42;0.88;;;30.80;35.40;;;27.68;47.79;96486.75;4913750;29;20559;-64
2022/08/07 09:33:22;;;;;;;3.45;1.25;;;30.80;34.90;;;27.92;45.10;96476.72;4926271;28;20416;-61
2022/08/07 09:36:06;;;;;;;3.90;2.50;;;31.00;35.70;;;28.12;45.13;96474.84;4948147;28;20086;-62
2022/08/07 09:39:02;;;;;;;3.00;1.10;;;31.10;35.80;;;28.22;43.32;96471.97;4948909;28;20399;-62
2022/08/07 09:42:10;;;;;;;4.18;1.35;;;31.20;34.30;;;28.30;41.99;96472.16;4965588;28;20448;-64
2022/08/07 09:45:10;;;;;;;4.22;1.00;;;31.40;33.40;;;28.43;41.81;96470.59;4946162;28;20047;-67
2022/08/07 09:48:29;;;;;;;2.60;1.30;;;31.60;33.60;;;28.77;41.10;96464.13;4946752;28;20082;-67
2022/08/07 09:51:04;;;;;;;7.90;3.13;;;32.50;32.00;;;29.12;41.12;96466.25;4912476;29;20036;-68
2022/08/07 09:53:33;;;;;;;4.03;2.40;;;33.10;30.90;;;29.43;40.86;96461.06;4928909;29;20555;-68
2022/08/07 09:56:22;;;;;;;3.38;1.77;;;33.30;30.40;;;29.48;39.86;96454.78;4925452;28;20039;-68
2022/08/07 09:59:06;;;;;;;7.50;3.42;;;32.80;31.00;;;29.52;40.14;96453.06;4951036;28;20032;-72
2022/08/07 10:02:13;;;;;;;2.22;1.33;;;32.50;32.10;;;29.57;39.26;96455.66;4950994;28;20067;-70
2022/08/07 10:04:59;;;;;;;2.00;1.10;;;32.20;31.70;;;29.50;39.85;96458.78;4953873;28;20062;-73
2022/08/07 10:07:31;;;;;;;1.63;1.02;;;32.30;31.90;;;29.56;41.80;96454.06;4948239;28;20047;-72
2022/08/07 10:10:17;;;;;;;3.10;1.00;;;32.60;32.40;;;29.57;38.97;96461.91;4951349;28;20032;-65
2022/08/07 10:13:11;;;;;;;3.65;0.90;;;32.60;31.10;;;29.52;37.82;96453.06;4963529;28;20353;-70
2022/08/07 10:15:39;;;;;;;2.42;0.93;;;32.60;30.00;;;29.53;40.83;96452.75;4962336;28;20188;-70
2022/08/07 10:18:25;;;;;;;4.25;2.03;;;32.70;31.00;;;29.77;38.40;96451.75;4949657;28;20046;-69
2022/08/07 10:21:27;;;;;;;2.85;1.00;;;32.90;30.90;;;29.87;37.45;96440.66;4946762;28;20035;-72
2022/08/07 10:24:14;;;;;;;2.47;1.17;;;33.00;30.80;;;29.86;37.36;96448.00;4967302;28;20514;-72
2022/08/07 10:27:00;;;;;;;2.28;1.10;;;33.00;30.20;;;29.80;39.52;96438.38;4949781;28;20035;-69
2022/08/07 10:30:03;;;;;;;2.00;1.15;;;32.90;30.30;;;29.90;36.73;96433.84;4964897;28;20031;-69
2022/08/07 10:33:03;;;;;;;3.20;1.23;;;33.40;29.60;;;30.28;37.50;96442.50;4949453;28;20031;-69
2022/08/07 10:35:44;;;;;;;1.80;0.90;;;34.50;29.00;;;30.77;39.05;96428.03;4967218;28;20039;-69
2022/08/07 10:38:37;;;;;;;4.00;1.10;;;35.60;26.90;;;31.13;35.87;96427.13;4963164;28;20406;-70